createdAt,value
2019-04-04T00:00:59.640Z,40.98
2019-04-04T00:01:59.308Z,41.01
2019-04-04T00:02:59.361Z,41.02
2019-04-04T00:03:59.364Z,41
2019-04-04T00:04:59.380Z,41.03
2019-04-04T00:05:59.517Z,41.02
2019-04-04T00:06:59.452Z,41.02
2019-04-04T00:08:00.705Z,41.05
2019-04-04T00:09:02.616Z,41.03
2019-04-04T00:09:59.554Z,41.02
2019-04-04T00:10:59.544Z,41.01
2019-04-04T00:11:59.584Z,41.01
2019-04-04T00:12:59.512Z,41.02
2019-04-04T00:13:59.495Z,41.03
2019-04-04T00:14:59.618Z,41.04
2019-04-04T00:15:59.299Z,41.03
2019-04-04T00:16:59.336Z,41.05
2019-04-04T00:17:59.289Z,41.03
2019-04-04T00:18:59.302Z,41.01
2019-04-04T00:20:01.527Z,41.03
2019-04-04T00:20:59.359Z,41.03
2019-04-04T00:21:59.374Z,41.04
2019-04-04T00:22:59.350Z,41.08
2019-04-04T00:23:59.398Z,41.07
2019-04-04T00:24:59.409Z,41.04
2019-04-04T00:25:59.398Z,41.04
2019-04-04T00:26:59.417Z,41.05
2019-04-04T00:27:59.532Z,41.02
2019-04-04T00:29:01.661Z,41.08
2019-04-04T00:29:59.436Z,41.07
2019-04-04T00:30:59.505Z,41.05
2019-04-04T00:31:59.489Z,41.06
2019-04-04T00:32:59.286Z,41.07
2019-04-04T00:33:59.289Z,41
2019-04-04T00:35:00.430Z,41.03
2019-04-04T00:36:03.247Z,41.07
2019-04-04T00:36:59.328Z,41.05
2019-04-04T00:37:59.399Z,41.06
2019-04-04T00:38:59.369Z,41.06
2019-04-04T00:39:59.387Z,41.02
2019-04-04T00:40:59.407Z,41.07
2019-04-04T00:41:59.406Z,41.06
2019-04-04T00:42:59.453Z,41.02
2019-04-04T00:43:59.735Z,41.02
2019-04-04T00:44:59.485Z,41.09
2019-04-04T00:46:01.202Z,41.06
2019-04-04T00:47:02.207Z,41.05
2019-04-04T00:48:03.605Z,41.07
2019-04-04T00:48:59.504Z,41.07
2019-04-04T00:49:59.357Z,41.07
2019-04-04T00:50:59.251Z,41.09
2019-04-04T00:51:59.293Z,41.08
2019-04-04T00:52:59.254Z,41.06
2019-04-04T00:53:59.396Z,41.05
2019-04-04T00:54:59.329Z,41.04
2019-04-04T00:55:59.334Z,41.08
2019-04-04T00:56:59.345Z,41.05
2019-04-04T00:57:59.368Z,41.09
2019-04-04T00:58:59.448Z,41.06
2019-04-04T00:59:59.395Z,41.07
2019-04-04T01:00:59.395Z,41.07
2019-04-04T01:01:59.416Z,41.07
2019-04-04T01:02:59.411Z,41.08
2019-04-04T01:04:01.032Z,41.1
2019-04-04T01:05:02.252Z,41.06
2019-04-04T01:06:03.566Z,41.04
2019-04-04T01:06:59.485Z,41.07
2019-04-04T01:07:59.354Z,41.1
2019-04-04T01:08:59.322Z,41.05
2019-04-04T01:09:59.296Z,41.1
2019-04-04T01:10:59.380Z,41.08
2019-04-04T01:11:59.332Z,41.07
2019-04-04T01:12:59.325Z,41.1
2019-04-04T01:13:59.351Z,41.07
2019-04-04T01:15:00.775Z,41.09
2019-04-04T01:16:03.360Z,41.05
2019-04-04T01:16:59.435Z,41.05
2019-04-04T01:17:59.404Z,41.02
2019-04-04T01:18:59.453Z,41.07
2019-04-04T01:19:59.512Z,41.08
2019-04-04T01:20:59.254Z,41.08
2019-04-04T01:21:59.564Z,41.04
2019-04-04T01:22:59.477Z,41.11
2019-04-04T01:23:59.528Z,41.11
2019-04-04T01:25:01.698Z,41.08
2019-04-04T01:25:59.226Z,41.08
2019-04-04T01:26:59.350Z,41.1
2019-04-04T01:27:59.288Z,41.04
2019-04-04T01:28:59.287Z,41.1
2019-04-04T01:29:59.305Z,41.13
2019-04-04T01:30:59.406Z,41.1
2019-04-04T01:31:59.234Z,41.06
2019-04-04T01:32:59.330Z,41.07
2019-04-04T01:33:59.384Z,41.08
2019-04-04T01:34:59.697Z,41.09
2019-04-04T01:35:59.385Z,41.09
2019-04-04T01:36:59.394Z,41.1
2019-04-04T01:37:59.496Z,41.09
2019-04-04T01:39:00.862Z,41.05
2019-04-04T01:40:02.701Z,41.08
2019-04-04T01:40:59.532Z,41.11
2019-04-04T01:41:59.494Z,41.1
2019-04-04T01:42:59.304Z,41.09
2019-04-04T01:44:05.567Z,41.07
2019-04-04T01:44:59.352Z,41.12
2019-04-04T01:45:59.295Z,41.1
2019-04-04T01:46:59.576Z,41.06
2019-04-04T01:47:59.443Z,41.1
2019-04-04T01:48:59.590Z,41.13
2019-04-04T01:49:59.323Z,41.05
2019-04-04T01:50:59.267Z,41.08
2019-04-04T01:51:59.431Z,41.1
2019-04-04T01:53:00.128Z,41.08
2019-04-04T01:54:01.702Z,41.09
2019-04-04T01:55:04.089Z,41.11
2019-04-04T01:55:59.433Z,41.06
2019-04-04T01:56:59.473Z,41.11
2019-04-04T01:57:59.735Z,41.1
2019-04-04T01:58:59.469Z,41.12
2019-04-04T01:59:59.497Z,41.1
2019-04-04T02:00:59.226Z,41.15
2019-04-04T02:01:59.238Z,41.13
2019-04-04T02:02:59.219Z,41.1
2019-04-04T02:03:59.284Z,41.11
2019-04-04T02:04:59.256Z,41.08
2019-04-04T02:05:59.267Z,41.08
2019-04-04T02:06:59.830Z,41.13
2019-04-04T02:08:01.638Z,41.12
2019-04-04T02:09:03.528Z,41.12
2019-04-04T02:09:59.859Z,41.13
2019-04-04T02:10:59.750Z,41.13
2019-04-04T02:11:59.527Z,41.15
2019-04-04T02:12:59.524Z,41.11
2019-04-04T02:13:59.228Z,41.1
2019-04-04T02:14:59.418Z,41.09
2019-04-04T02:15:59.425Z,41.11
2019-04-04T02:16:59.408Z,41.13
2019-04-04T02:17:59.503Z,41.13
2019-04-04T02:18:59.547Z,41.09
2019-04-04T02:19:59.359Z,41.11
2019-04-04T02:20:59.510Z,41.11
2019-04-04T02:22:00.420Z,41.11
2019-04-04T02:23:01.908Z,41.08
2019-04-04T02:24:02.033Z,41.07
2019-04-04T02:25:03.749Z,41.04
2019-04-04T02:25:59.343Z,41.12
2019-04-04T02:26:59.343Z,41.11
2019-04-04T02:27:59.354Z,41.08
2019-04-04T02:28:59.329Z,41.13
2019-04-04T02:29:59.470Z,41.06
2019-04-04T02:30:59.415Z,41.1
2019-04-04T02:31:59.418Z,41.08
2019-04-04T02:33:00.926Z,41.06
2019-04-04T02:33:59.413Z,41.11
2019-04-04T02:34:59.407Z,41.08
2019-04-04T02:35:59.465Z,41.11
2019-04-04T02:36:59.543Z,41.09
2019-04-04T02:37:59.488Z,41.1
2019-04-04T02:39:00.868Z,41.14
2019-04-04T02:39:59.344Z,41.09
2019-04-04T02:40:59.241Z,41.15
2019-04-04T02:41:59.315Z,41.06
2019-04-04T02:42:59.381Z,41.1
2019-04-04T02:44:00.824Z,41.1
2019-04-04T02:44:59.310Z,41.08
2019-04-04T02:45:59.315Z,41.05
2019-04-04T02:46:59.335Z,41.09
2019-04-04T02:47:59.379Z,41.13
2019-04-04T02:48:59.316Z,41.1
2019-04-04T02:50:02.226Z,41.09
2019-04-04T02:50:59.466Z,41.12
2019-04-04T02:51:59.576Z,41.08
2019-04-04T02:52:59.407Z,41.09
2019-04-04T02:53:59.774Z,41.12
2019-04-04T02:54:59.588Z,41.08
2019-04-04T02:56:03.462Z,41.1
2019-04-04T02:56:59.283Z,41.13
2019-04-04T02:57:59.358Z,41.09
2019-04-04T02:58:59.311Z,41.11
2019-04-04T02:59:59.293Z,41.12
2019-04-04T03:01:00.647Z,41.1
2019-04-04T03:01:59.312Z,41.11
2019-04-04T03:02:59.308Z,41.1
2019-04-04T03:03:59.355Z,41.13
2019-04-04T03:04:59.418Z,41.09
2019-04-04T03:05:59.478Z,41.09
2019-04-04T03:06:59.398Z,41.06
2019-04-04T03:08:04.437Z,41.15
2019-04-04T03:08:59.399Z,41.14
2019-04-04T03:09:59.522Z,41.15
2019-04-04T03:10:59.424Z,41.1
2019-04-04T03:11:59.480Z,41.05
2019-04-04T03:12:59.687Z,41.11
2019-04-04T03:14:04.596Z,41.13
2019-04-04T03:14:59.357Z,41.14
2019-04-04T03:15:59.937Z,41.1
2019-04-04T03:16:59.228Z,41.13
2019-04-04T03:17:59.251Z,41.11
2019-04-04T03:18:59.274Z,41.12
2019-04-04T03:19:59.253Z,41.11
2019-04-04T03:20:59.272Z,41.08
2019-04-04T03:21:59.312Z,41.14
2019-04-04T03:23:01.458Z,41.12
2019-04-04T03:23:59.329Z,41.12
2019-04-04T03:24:59.333Z,41.06
2019-04-04T03:25:59.265Z,41.11
2019-04-04T03:26:59.337Z,41.13
2019-04-04T03:27:59.580Z,41.12
2019-04-04T03:29:05.655Z,41.09
2019-04-04T03:29:59.428Z,41.09
2019-04-04T03:31:03.813Z,41.03
2019-04-04T03:31:59.353Z,41.07
2019-04-04T03:32:59.250Z,41.05
2019-04-04T03:33:59.249Z,41.1
2019-04-04T03:34:59.272Z,41.11
2019-04-04T03:36:01.387Z,41.06
2019-04-04T03:36:59.573Z,41.03
2019-04-04T03:37:59.308Z,41.06
2019-04-04T03:38:59.346Z,41.03
2019-04-04T03:39:59.356Z,41.02
2019-04-04T03:40:59.454Z,41.01
2019-04-04T03:41:59.272Z,40.98
2019-04-04T03:42:59.433Z,41.04
2019-04-04T03:43:59.381Z,41.03
2019-04-04T03:44:59.602Z,41.04
2019-04-04T03:46:01.812Z,41.04
2019-04-04T03:46:59.523Z,41.01
2019-04-04T03:47:59.433Z,41.01
2019-04-04T03:48:59.205Z,40.98
2019-04-04T03:49:59.292Z,40.95
2019-04-04T03:51:04.940Z,40.96
2019-04-04T03:51:59.197Z,40.97
2019-04-04T03:52:59.165Z,40.95
2019-04-04T03:53:59.408Z,40.96
2019-04-04T03:54:59.444Z,40.92
2019-04-04T03:56:01.650Z,40.89
2019-04-04T03:56:59.228Z,40.9
2019-04-04T03:57:59.712Z,40.89
2019-04-04T03:59:00.902Z,40.85
2019-04-04T03:59:59.312Z,40.88
2019-04-04T04:00:59.547Z,40.92
2019-04-04T04:01:59.330Z,40.85
2019-04-04T04:02:59.456Z,40.8
2019-04-04T04:03:59.405Z,40.83
2019-04-04T04:05:02.202Z,40.79
2019-04-04T04:05:59.643Z,40.74
2019-04-04T04:06:59.467Z,40.78
2019-04-04T04:07:59.180Z,40.81
2019-04-04T04:08:59.237Z,40.73
2019-04-04T04:10:00.618Z,40.82
2019-04-04T04:10:59.256Z,40.82
2019-04-04T04:11:59.363Z,40.74
2019-04-04T04:12:59.242Z,40.72
2019-04-04T04:13:59.359Z,40.75
2019-04-04T04:14:59.288Z,40.79
2019-04-04T04:16:03.888Z,40.78
2019-04-04T04:16:59.312Z,40.85
2019-04-04T04:17:59.360Z,40.7
2019-04-04T04:18:59.353Z,40.75
2019-04-04T04:20:04.768Z,40.85
2019-04-04T04:20:59.553Z,40.8
2019-04-04T04:21:59.384Z,40.82
2019-04-04T04:22:59.396Z,40.85
2019-04-04T04:23:59.537Z,40.83
2019-04-04T04:25:03.526Z,40.83
2019-04-04T04:25:59.178Z,40.85
2019-04-04T04:26:59.199Z,40.83
2019-04-04T04:28:03.236Z,40.81
2019-04-04T04:28:59.280Z,40.83
2019-04-04T04:30:06.805Z,40.89
2019-04-04T04:30:59.223Z,40.92
2019-04-04T04:31:59.248Z,40.9
2019-04-04T04:32:59.287Z,40.86
2019-04-04T04:34:01.968Z,40.87
2019-04-04T04:34:59.389Z,40.89
2019-04-04T04:35:59.279Z,40.8
2019-04-04T04:36:59.331Z,40.84
2019-04-04T04:37:59.395Z,40.85
2019-04-04T04:39:00.404Z,40.84
2019-04-04T04:39:59.359Z,40.86
2019-04-04T04:40:59.351Z,40.85
2019-04-04T04:41:59.918Z,40.85
2019-04-04T04:43:01.060Z,40.84
2019-04-04T04:43:59.446Z,40.86
2019-04-04T04:44:59.179Z,40.82
2019-04-04T04:45:59.207Z,40.83
2019-04-04T04:46:59.242Z,40.83
2019-04-04T04:47:59.251Z,40.84
2019-04-04T04:49:04.071Z,40.83
2019-04-04T04:49:59.616Z,40.83
2019-04-04T04:50:59.411Z,40.83
2019-04-04T04:51:59.381Z,40.81
2019-04-04T04:52:59.335Z,40.8
2019-04-04T04:53:59.313Z,40.83
2019-04-04T04:54:59.384Z,40.82
2019-04-04T04:56:00.842Z,40.8
2019-04-04T04:57:04.947Z,40.78
2019-04-04T04:57:59.375Z,40.76
2019-04-04T04:58:59.362Z,40.75
2019-04-04T04:59:59.365Z,40.72
2019-04-04T05:00:59.478Z,40.77
2019-04-04T05:01:59.521Z,40.74
2019-04-04T05:02:59.421Z,40.77
2019-04-04T05:04:02.772Z,40.74
2019-04-04T05:05:00.119Z,40.7
2019-04-04T05:06:02.690Z,40.72
2019-04-04T05:06:59.214Z,40.71
2019-04-04T05:07:59.288Z,40.72
2019-04-04T05:08:59.205Z,40.72
2019-04-04T05:09:59.333Z,40.71
2019-04-04T05:10:59.249Z,40.7
2019-04-04T05:11:59.283Z,40.72
2019-04-04T05:12:59.282Z,40.69
2019-04-04T05:13:59.495Z,40.69
2019-04-04T05:15:02.323Z,40.69
2019-04-04T05:15:59.306Z,40.74
2019-04-04T05:16:59.355Z,40.7
2019-04-04T05:17:59.316Z,40.68
2019-04-04T05:18:59.531Z,40.66
2019-04-04T05:19:59.354Z,40.64
2019-04-04T05:21:02.544Z,40.69
2019-04-04T05:21:59.512Z,40.63
2019-04-04T05:22:59.196Z,40.65
2019-04-04T05:23:59.302Z,40.64
2019-04-04T05:25:08.960Z,40.62
2019-04-04T05:26:03.242Z,40.63
2019-04-04T05:26:59.251Z,40.6
2019-04-04T05:27:59.261Z,40.59
2019-04-04T05:28:59.264Z,40.62
2019-04-04T05:29:59.260Z,40.61
2019-04-04T05:30:59.287Z,40.62
2019-04-04T05:31:59.301Z,40.63
2019-04-04T05:32:59.357Z,40.64
2019-04-04T05:33:59.873Z,40.59
2019-04-04T05:35:02.143Z,40.59
2019-04-04T05:35:59.340Z,40.55
2019-04-04T05:36:59.402Z,40.53
2019-04-04T05:37:59.499Z,40.6
2019-04-04T05:38:59.455Z,40.61
2019-04-04T05:39:59.401Z,40.57
2019-04-04T05:40:59.236Z,40.58
2019-04-04T05:42:01.219Z,40.59
2019-04-04T05:42:59.190Z,40.58
2019-04-04T05:43:59.161Z,40.59
2019-04-04T05:44:59.182Z,40.58
2019-04-04T05:45:59.234Z,40.57
2019-04-04T05:47:00.090Z,40.56
2019-04-04T05:48:00.073Z,40.58
2019-04-04T05:49:07.532Z,40.59
2019-04-04T05:49:59.222Z,40.59
2019-04-04T05:50:59.248Z,40.56
2019-04-04T05:51:59.282Z,40.53
2019-04-04T05:52:59.305Z,40.55
2019-04-04T05:53:59.455Z,40.54
2019-04-04T05:54:59.415Z,40.55
2019-04-04T05:56:00.489Z,40.53
2019-04-04T05:56:59.359Z,40.56
2019-04-04T05:57:59.399Z,40.53
2019-04-04T05:58:59.127Z,40.54
2019-04-04T05:59:59.175Z,40.5
2019-04-04T06:01:02.617Z,40.5
2019-04-04T06:01:59.155Z,40.52
2019-04-04T06:02:59.195Z,40.51
2019-04-04T06:03:59.244Z,40.5
2019-04-04T06:04:59.256Z,40.46
2019-04-04T06:06:02.039Z,40.5
2019-04-04T06:06:59.262Z,40.5
2019-04-04T06:07:59.352Z,40.47
2019-04-04T06:08:59.405Z,40.49
2019-04-04T06:09:59.306Z,40.5
2019-04-04T06:10:59.335Z,40.47
2019-04-04T06:11:59.412Z,40.54
2019-04-04T06:12:59.347Z,40.56
2019-04-04T06:13:59.854Z,40.53
2019-04-04T06:15:01.161Z,40.5
2019-04-04T06:15:59.420Z,40.52
2019-04-04T06:16:59.108Z,40.51
2019-04-04T06:17:59.117Z,40.56
2019-04-04T06:18:59.160Z,40.5
2019-04-04T06:19:59.141Z,40.51
2019-04-04T06:20:59.171Z,40.53
2019-04-04T06:21:59.174Z,40.53
2019-04-04T06:22:59.324Z,40.54
2019-04-04T06:23:59.185Z,40.51
2019-04-04T06:25:00.072Z,40.5
2019-04-04T06:25:59.253Z,40.54
2019-04-04T06:26:59.242Z,40.5
2019-04-04T06:27:59.391Z,40.52
2019-04-04T06:28:59.424Z,40.52
2019-04-04T06:29:59.375Z,40.54
2019-04-04T06:31:01.007Z,40.52
2019-04-04T06:32:01.058Z,40.53
2019-04-04T06:32:59.418Z,40.51
2019-04-04T06:33:59.377Z,40.54
2019-04-04T06:34:59.162Z,40.54
2019-04-04T06:35:59.176Z,40.54
2019-04-04T06:36:59.188Z,40.57
2019-04-04T06:37:59.176Z,40.56
2019-04-04T06:38:59.274Z,40.52
2019-04-04T06:39:59.730Z,40.51
2019-04-04T06:41:01.571Z,40.54
2019-04-04T06:41:59.239Z,40.48
2019-04-04T06:42:59.250Z,40.5
2019-04-04T06:43:59.256Z,40.48
2019-04-04T06:44:59.333Z,40.48
2019-04-04T06:45:59.354Z,40.46
2019-04-04T06:47:02.255Z,40.49
2019-04-04T06:47:59.310Z,40.47
2019-04-04T06:48:59.432Z,40.5
2019-04-04T06:49:59.396Z,40.47
2019-04-04T06:50:59.362Z,40.49
2019-04-04T06:51:59.364Z,40.5
2019-04-04T06:53:00.111Z,40.45
2019-04-04T06:53:59.830Z,40.52
2019-04-04T06:54:59.163Z,40.44
2019-04-04T06:56:01.106Z,40.41
2019-04-04T06:57:01.512Z,40.46
2019-04-04T06:57:59.261Z,40.41
2019-04-04T06:58:59.175Z,40.46
2019-04-04T06:59:59.261Z,40.46
2019-04-04T07:00:59.231Z,40.46
2019-04-04T07:01:59.242Z,40.43
2019-04-04T07:02:59.243Z,40.42
2019-04-04T07:04:00.311Z,40.45
2019-04-04T07:04:59.243Z,40.43
2019-04-04T07:05:59.340Z,40.42
2019-04-04T07:06:59.309Z,40.46
2019-04-04T07:07:59.301Z,40.4
2019-04-04T07:08:59.323Z,40.41
2019-04-04T07:09:59.360Z,40.46
2019-04-04T07:11:04.446Z,40.42
2019-04-04T07:11:59.169Z,40.42
2019-04-04T07:13:20.785Z,40.43
2019-04-04T07:13:59.968Z,40.39
2019-04-04T07:14:59.208Z,40.41
2019-04-04T07:16:08.072Z,40.38
2019-04-04T07:16:59.505Z,40.41
2019-04-04T07:17:59.255Z,40.41
2019-04-04T07:18:59.311Z,40.42
2019-04-04T07:19:59.252Z,40.38
2019-04-04T07:20:59.352Z,40.41
2019-04-04T07:21:59.353Z,40.41
2019-04-04T07:22:59.293Z,40.38
2019-04-04T07:24:00.153Z,40.34
2019-04-04T07:25:03.564Z,40.4
2019-04-04T07:25:59.359Z,40.42
2019-04-04T07:26:59.370Z,40.39
2019-04-04T07:27:59.398Z,40.38
2019-04-04T07:28:59.142Z,40.36
2019-04-04T07:29:59.115Z,40.37
2019-04-04T07:31:02.254Z,40.37
2019-04-04T07:31:59.132Z,40.36
2019-04-04T07:32:59.156Z,40.36
2019-04-04T07:33:59.349Z,40.37
2019-04-04T07:34:59.344Z,40.36
2019-04-04T07:35:59.503Z,40.32
2019-04-04T07:36:59.220Z,40.36
2019-04-04T07:37:59.326Z,40.34
2019-04-04T07:39:01.075Z,40.36
2019-04-04T07:40:04.447Z,40.32
2019-04-04T07:40:59.266Z,40.38
2019-04-04T07:41:59.296Z,40.33
2019-04-04T07:42:59.301Z,40.35
2019-04-04T07:43:59.293Z,40.36
2019-04-04T07:44:59.189Z,40.37
2019-04-04T07:46:15.255Z,40.35
2019-04-04T07:46:59.226Z,40.3
2019-04-04T07:47:59.239Z,40.36
2019-04-04T07:48:59.236Z,40.34
2019-04-04T07:49:59.157Z,40.3
2019-04-04T07:50:59.420Z,40.34
2019-04-04T07:52:02.289Z,40.32
2019-04-04T07:52:59.226Z,40.33
2019-04-04T07:53:59.268Z,40.35
2019-04-04T07:54:59.373Z,40.35
2019-04-04T07:55:59.553Z,40.34
2019-04-04T07:56:59.411Z,40.35
2019-04-04T07:57:59.288Z,40.31
2019-04-04T07:58:59.348Z,40.33
2019-04-04T07:59:59.317Z,40.32
2019-04-04T08:00:59.339Z,40.31
2019-04-04T08:01:59.428Z,40.28
2019-04-04T08:02:59.388Z,40.33
2019-04-04T08:03:59.140Z,40.33
2019-04-04T08:04:59.071Z,40.34
2019-04-04T08:05:59.107Z,40.31
2019-04-04T08:06:59.267Z,40.31
2019-04-04T08:07:59.139Z,40.31
2019-04-04T08:08:59.189Z,40.3
2019-04-04T08:09:59.138Z,40.31
2019-04-04T08:10:59.158Z,40.29
2019-04-04T08:11:59.351Z,40.33
2019-04-04T08:12:59.220Z,40.33
2019-04-04T08:13:59.363Z,40.32
2019-04-04T08:14:59.220Z,40.35
2019-04-04T08:15:59.250Z,40.36
2019-04-04T08:16:59.281Z,40.31
2019-04-04T08:17:59.342Z,40.31
2019-04-04T08:18:59.313Z,40.33
2019-04-04T08:20:00.256Z,40.35
2019-04-04T08:20:59.438Z,40.35
2019-04-04T08:21:59.359Z,40.36
2019-04-04T08:22:59.115Z,40.31
2019-04-04T08:23:59.118Z,40.34
2019-04-04T08:24:59.186Z,40.31
2019-04-04T08:25:59.217Z,40.36
2019-04-04T08:26:59.221Z,40.31
2019-04-04T08:27:59.205Z,40.35
2019-04-04T08:28:59.179Z,40.37
2019-04-04T08:29:59.306Z,40.35
2019-04-04T08:30:59.327Z,40.37
2019-04-04T08:31:59.218Z,40.35
2019-04-04T08:32:59.263Z,40.35
2019-04-04T08:33:59.380Z,40.35
2019-04-04T08:34:59.263Z,40.36
2019-04-04T08:36:06.559Z,40.38
2019-04-04T08:36:59.442Z,40.35
2019-04-04T08:37:59.330Z,40.33
2019-04-04T08:38:59.071Z,40.36
2019-04-04T08:39:59.263Z,40.36
2019-04-04T08:40:59.313Z,40.39
2019-04-04T08:41:59.210Z,40.37
2019-04-04T08:42:59.131Z,40.35
2019-04-04T08:43:59.303Z,40.36
2019-04-04T08:44:59.174Z,40.37
2019-04-04T08:45:59.195Z,40.38
2019-04-04T08:46:59.186Z,40.35
2019-04-04T08:47:59.193Z,40.35
2019-04-04T08:48:59.087Z,40.38
2019-04-04T08:49:59.234Z,40.38
2019-04-04T08:50:59.279Z,40.39
2019-04-04T08:51:59.248Z,40.35
2019-04-04T08:52:59.243Z,40.38
2019-04-04T08:53:59.287Z,40.37
2019-04-04T08:54:59.307Z,40.37
2019-04-04T08:55:59.120Z,40.38
2019-04-04T08:56:59.104Z,40.36
2019-04-04T08:57:59.135Z,40.37
2019-04-04T08:58:59.207Z,40.36
2019-04-04T08:59:59.217Z,40.35
2019-04-04T09:00:59.170Z,40.36
2019-04-04T09:01:59.505Z,40.36
2019-04-04T09:02:59.317Z,40.35
2019-04-04T09:03:59.208Z,40.35
2019-04-04T09:05:12.563Z,40.36
2019-04-04T09:05:59.249Z,40.37
2019-04-04T09:06:59.312Z,40.36
2019-04-04T09:07:59.274Z,40.36
2019-04-04T09:08:59.241Z,40.39
2019-04-04T09:09:59.321Z,40.34
2019-04-04T09:10:59.391Z,40.37
2019-04-04T09:11:59.265Z,40.33
2019-04-04T09:12:59.338Z,40.34
2019-04-04T09:13:59.051Z,40.33
2019-04-04T09:14:59.063Z,40.36
2019-04-04T09:15:59.146Z,40.36
2019-04-04T09:16:59.096Z,40.38
2019-04-04T09:17:59.123Z,40.37
2019-04-04T09:18:59.141Z,40.37
2019-04-04T09:19:59.120Z,40.39
2019-04-04T09:20:59.180Z,40.34
2019-04-04T09:21:59.340Z,40.34
2019-04-04T09:22:59.256Z,40.35
2019-04-04T09:24:01.013Z,40.36
2019-04-04T09:24:59.220Z,40.34
2019-04-04T09:26:06.174Z,40.31
2019-04-04T09:26:59.256Z,40.38
2019-04-04T09:27:59.247Z,40.38
2019-04-04T09:28:59.255Z,40.36
2019-04-04T09:29:59.267Z,40.34
2019-04-04T09:30:59.070Z,40.35
2019-04-04T09:31:59.102Z,40.35
2019-04-04T09:32:59.204Z,40.37
2019-04-04T09:33:59.140Z,40.35
2019-04-04T09:34:59.164Z,40.31
2019-04-04T09:35:59.109Z,40.35
2019-04-04T09:36:59.164Z,40.35
2019-04-04T09:37:59.165Z,40.34
2019-04-04T09:38:59.254Z,40.37
2019-04-04T09:39:59.259Z,40.33
2019-04-04T09:40:59.279Z,40.35
2019-04-04T09:41:59.300Z,40.33
2019-04-04T09:42:59.258Z,40.33
2019-04-04T09:43:59.229Z,40.35
2019-04-04T09:44:59.510Z,40.35
2019-04-04T09:45:59.388Z,40.33
2019-04-04T09:47:05.929Z,40.31
2019-04-04T09:47:59.286Z,40.33
2019-04-04T09:48:59.325Z,40.31
2019-04-04T09:49:59.059Z,40.3
2019-04-04T09:50:59.212Z,40.35
2019-04-04T09:51:59.047Z,40.31
2019-04-04T09:52:59.113Z,40.33
2019-04-04T09:53:59.084Z,40.33
2019-04-04T09:54:59.195Z,40.35
2019-04-04T09:55:59.124Z,40.35
2019-04-04T09:56:59.132Z,40.34
2019-04-04T09:57:59.168Z,40.32
2019-04-04T09:58:59.147Z,40.32
2019-04-04T09:59:59.232Z,40.32
2019-04-04T10:00:59.243Z,40.33
2019-04-04T10:01:59.382Z,40.31
2019-04-04T10:02:59.201Z,40.34
2019-04-04T10:03:59.230Z,40.31
2019-04-04T10:04:59.245Z,40.31
2019-04-04T10:05:59.239Z,40.31
2019-04-04T10:06:59.295Z,40.36
2019-04-04T10:07:59.482Z,40.35
2019-04-04T10:08:59.088Z,40.31
2019-04-04T10:09:59.107Z,40.33
2019-04-04T10:10:59.109Z,40.32
2019-04-04T10:11:59.118Z,40.32
2019-04-04T10:12:59.159Z,40.29
2019-04-04T10:13:59.246Z,40.32
2019-04-04T10:14:59.175Z,40.31
2019-04-04T10:15:59.240Z,40.31
2019-04-04T10:16:59.160Z,40.31
2019-04-04T10:17:59.200Z,40.32
2019-04-04T10:18:59.226Z,40.27
2019-04-04T10:19:59.202Z,40.29
2019-04-04T10:21:12.473Z,40.25
2019-04-04T10:21:59.280Z,40.26
2019-04-04T10:22:59.235Z,40.33
2019-04-04T10:23:59.569Z,40.3
2019-04-04T10:24:59.350Z,40.3
2019-04-04T10:25:59.485Z,40.3
2019-04-04T10:26:59.099Z,40.25
2019-04-04T10:27:59.043Z,40.27
2019-04-04T10:28:59.068Z,40.26
2019-04-04T10:29:59.273Z,40.27
2019-04-04T10:30:59.238Z,40.27
2019-04-04T10:31:59.096Z,40.27
2019-04-04T10:32:59.214Z,40.25
2019-04-04T10:33:59.043Z,40.29
2019-04-04T10:34:59.144Z,40.26
2019-04-04T10:35:59.149Z,40.25
2019-04-04T10:36:59.206Z,40.27
2019-04-04T10:37:59.153Z,40.25
2019-04-04T10:38:59.209Z,40.27
2019-04-04T10:39:59.235Z,40.28
2019-04-04T10:40:59.205Z,40.24
2019-04-04T10:41:59.218Z,40.24
2019-04-04T10:42:59.261Z,40.25
2019-04-04T10:43:59.343Z,40.28
2019-04-04T10:44:59.097Z,40.25
2019-04-04T10:45:59.091Z,40.24
2019-04-04T10:46:59.099Z,40.28
2019-04-04T10:47:59.090Z,40.22
2019-04-04T10:48:59.185Z,40.28
2019-04-04T10:49:59.139Z,40.22
2019-04-04T10:50:59.136Z,40.25
2019-04-04T10:51:59.238Z,40.24
2019-04-04T10:52:59.169Z,40.25
2019-04-04T10:53:59.182Z,40.22
2019-04-04T10:55:01.879Z,40.25
2019-04-04T10:55:59.276Z,40.26
2019-04-04T10:56:59.287Z,40.21
2019-04-04T10:57:59.236Z,40.23
2019-04-04T10:58:59.235Z,40.21
2019-04-04T10:59:59.359Z,40.23
2019-04-04T11:00:59.404Z,40.23
2019-04-04T11:02:01.123Z,40.22
2019-04-04T11:02:58.995Z,40.25
2019-04-04T11:03:59.213Z,40.24
2019-04-04T11:04:59.042Z,40.24
2019-04-04T11:05:59.071Z,40.24
2019-04-04T11:06:59.108Z,40.23
2019-04-04T11:07:59.240Z,40.2
2019-04-04T11:08:59.078Z,40.24
2019-04-04T11:09:59.244Z,40.2
2019-04-04T11:10:59.286Z,40.24
2019-04-04T11:11:59.127Z,40.22
2019-04-04T11:12:59.243Z,40.22
2019-04-04T11:13:59.184Z,40.23
2019-04-04T11:14:59.176Z,40.25
2019-04-04T11:15:59.202Z,40.22
2019-04-04T11:16:59.191Z,40.23
2019-04-04T11:17:59.275Z,40.2
2019-04-04T11:18:59.271Z,40.19
2019-04-04T11:19:59.236Z,40.23
2019-04-04T11:20:59.035Z,40.2
2019-04-04T11:21:59.083Z,40.23
2019-04-04T11:22:59.086Z,40.19
2019-04-04T11:23:59.435Z,40.2
2019-04-04T11:24:59.102Z,40.2
2019-04-04T11:25:59.111Z,40.21
2019-04-04T11:26:59.129Z,40.2
2019-04-04T11:27:59.139Z,40.18
2019-04-04T11:28:59.192Z,40.2
2019-04-04T11:29:59.162Z,40.16
2019-04-04T11:30:59.176Z,40.23
2019-04-04T11:31:59.224Z,40.18
2019-04-04T11:32:59.344Z,40.17
2019-04-04T11:33:59.281Z,40.22
2019-04-04T11:34:59.284Z,40.18
2019-04-04T11:35:59.258Z,40.2
2019-04-04T11:36:59.250Z,40.24
2019-04-04T11:37:59.263Z,40.21
2019-04-04T11:38:59.013Z,40.19
2019-04-04T11:39:59.067Z,40.19
2019-04-04T11:40:59.196Z,40.2
2019-04-04T11:41:59.147Z,40.2
2019-04-04T11:42:59.077Z,40.21
2019-04-04T11:43:59.156Z,40.17
2019-04-04T11:44:59.065Z,40.2
2019-04-04T11:45:59.102Z,40.16
2019-04-04T11:46:59.140Z,40.18
2019-04-04T11:47:59.116Z,40.16
2019-04-04T11:48:59.247Z,40.23
2019-04-04T11:49:59.129Z,40.19
2019-04-04T11:50:59.177Z,40.23
2019-04-04T11:51:59.343Z,40.18
2019-04-04T11:52:59.160Z,40.18
2019-04-04T11:53:59.221Z,40.2
2019-04-04T11:54:59.302Z,40.2
2019-04-04T11:55:59.271Z,40.18
2019-04-04T11:56:59.426Z,40.16
2019-04-04T11:57:59.049Z,40.2
2019-04-04T11:58:59.051Z,40.16
2019-04-04T11:59:59.072Z,40.16
2019-04-04T12:00:59.091Z,40.15
2019-04-04T12:01:59.174Z,40.17
2019-04-04T12:02:59.088Z,40.16
2019-04-04T12:03:59.128Z,40.14
2019-04-04T12:04:59.175Z,40.15
2019-04-04T12:05:59.173Z,40.16
2019-04-04T12:06:59.183Z,40.16
2019-04-04T12:07:59.194Z,40.17
2019-04-04T12:08:59.267Z,40.17
2019-04-04T12:10:08.045Z,40.15
2019-04-04T12:10:59.290Z,40.17
2019-04-04T12:11:59.333Z,40.17
2019-04-04T12:12:59.364Z,40.14
2019-04-04T12:13:59.399Z,40.15
2019-04-04T12:14:58.996Z,40.18
2019-04-04T12:15:59.081Z,40.2
2019-04-04T12:16:59.007Z,40.19
2019-04-04T12:17:59.990Z,40.16
2019-04-04T12:18:59.057Z,40.14
2019-04-04T12:19:59.123Z,40.17
2019-04-04T12:20:59.088Z,40.2
2019-04-04T12:21:59.111Z,40.18
2019-04-04T12:22:59.115Z,40.18
2019-04-04T12:23:59.120Z,40.16
2019-04-04T12:24:59.173Z,40.19
2019-04-04T12:25:59.142Z,40.16
2019-04-04T12:26:59.160Z,40.18
2019-04-04T12:27:59.197Z,40.12
2019-04-04T12:28:59.301Z,40.14
2019-04-04T12:29:59.170Z,40.15
2019-04-04T12:30:59.298Z,40.16
2019-04-04T12:31:59.349Z,40.17
2019-04-04T12:32:59.244Z,40.16
2019-04-04T12:34:02.402Z,40.13
2019-04-04T12:34:59.055Z,40.15
2019-04-04T12:35:59.045Z,40.14
2019-04-04T12:36:59.081Z,40.15
2019-04-04T12:37:59.104Z,40.14
2019-04-04T12:38:59.082Z,40.14
2019-04-04T12:39:59.265Z,40.14
2019-04-04T12:40:59.097Z,40.13
2019-04-04T12:41:59.130Z,40.12
2019-04-04T12:42:59.180Z,40.16
2019-04-04T12:43:59.163Z,40.17
2019-04-04T12:44:59.157Z,40.18
2019-04-04T12:45:59.210Z,40.14
2019-04-04T12:46:59.202Z,40.16
2019-04-04T12:47:59.216Z,40.13
2019-04-04T12:48:59.236Z,40.13
2019-04-04T12:49:59.315Z,40.16
2019-04-04T12:50:59.219Z,40.12
2019-04-04T12:51:59.014Z,40.14
2019-04-04T12:52:59.004Z,40.11
2019-04-04T12:53:59.129Z,40.16
2019-04-04T12:54:59.231Z,40.16
2019-04-04T12:55:59.077Z,40.17